Terminal Aerodrome Forecast
Issued by NWS

Home | Current Version | Previous Version | Text Only | Print | Product List | Glossary Off
Versions: 1 2 3 4 5 6 7 8 9 10 11 12 13 14 15 16

215
FTUS43 KGRB 241735
TAFAUW
TAF
KAUW 241735Z 2418/2518 20010G15KT P6SM BKN050
     FM250100 19006KT P6SM SCT050 SCT090
     FM250400 21006KT P6SM VCSH SCT050 BKN090
     FM251600 22011G18KT P6SM VCTS BKN035CB=

USA.gov is the U.S. government's official web portal to all federal, state and local government web resources and services.